createdAt,value
2023-04-06T00:00:36.642Z,94336.25
2023-04-06T00:03:03.609Z,94327.28
2023-04-06T00:05:31.866Z,94325.69
2023-04-06T00:07:59.570Z,94325.69
2023-04-06T00:10:26.539Z,94329.84
2023-04-06T00:12:53.921Z,94328.53
2023-04-06T00:15:21.530Z,94327.13
2023-04-06T00:17:48.386Z,94329.75
2023-04-06T00:20:15.703Z,94331.22
2023-04-06T00:22:42.555Z,94328.06
2023-04-06T00:25:09.778Z,94322.03
2023-04-06T00:27:36.608Z,94321.09
2023-04-06T00:30:07.143Z,94317.28
2023-04-06T00:32:34.069Z,94311.16
2023-04-06T00:35:00.853Z,94313.09
2023-04-06T00:37:27.625Z,94316.97
2023-04-06T00:39:54.439Z,94321.34
2023-04-06T00:42:26.695Z,94315.72
2023-04-06T00:44:58.114Z,94310.41
2023-04-06T00:47:28.690Z,94312.91
2023-04-06T00:49:56.337Z,94310.72
2023-04-06T00:52:23.750Z,94310.28
2023-04-06T00:54:51.742Z,94306.41
2023-04-06T00:57:19.076Z,94315.25
2023-04-06T00:59:46.536Z,94305.19
2023-04-06T01:02:13.366Z,94308.28
2023-04-06T01:04:40.146Z,94312.91
2023-04-06T01:07:06.993Z,94305.22
2023-04-06T01:09:33.996Z,94303.47
2023-04-06T01:12:00.829Z,94291.88
2023-04-06T01:14:27.764Z,94308.22
2023-04-06T01:16:54.769Z,94303.28
2023-04-06T01:19:23.206Z,94305.44
2023-04-06T01:21:50.695Z,94307.91
2023-04-06T01:24:17.709Z,94299.56
2023-04-06T01:26:44.628Z,94301.47
2023-04-06T01:29:11.365Z,94301.75
2023-04-06T01:31:38.751Z,94284.88
2023-04-06T01:34:06.013Z,94305.50
2023-04-06T01:36:32.769Z,94303.47
2023-04-06T01:38:59.587Z,94303.09
2023-04-06T01:41:26.390Z,94298.56
2023-04-06T01:43:55.821Z,94297.66
2023-04-06T01:46:22.864Z,94295.53
2023-04-06T01:48:50.103Z,94298.19
2023-04-06T01:51:17.038Z,94302.63
2023-04-06T01:53:43.865Z,94296.28
2023-04-06T01:56:11.005Z,94301.69
2023-04-06T01:58:37.747Z,94297.28
2023-04-06T02:01:04.666Z,94294.63
2023-04-06T02:03:32.539Z,94299.28
2023-04-06T02:05:59.334Z,94296.47
2023-04-06T02:08:26.278Z,94292.72
2023-04-06T02:10:53.410Z,94300.13
2023-04-06T02:13:20.374Z,94293.56
2023-04-06T02:15:47.245Z,94294.91
2023-04-06T02:18:14.059Z,94298.41
2023-04-06T02:20:40.852Z,94290.91
2023-04-06T02:23:08.323Z,94295.50
2023-04-06T02:25:35.076Z,94287.84
2023-04-06T02:28:02.066Z,94301.91
2023-04-06T02:30:30.144Z,94297.91
2023-04-06T02:32:57.155Z,94292.38
2023-04-06T02:35:26.212Z,94294.91
2023-04-06T02:37:53.123Z,94273.41
2023-04-06T02:40:19.879Z,94290.63
2023-04-06T02:42:46.689Z,94294.25
2023-04-06T02:45:13.657Z,94283.53
2023-04-06T02:47:40.908Z,94276.34
2023-04-06T02:50:08.013Z,94288.78
2023-04-06T02:52:34.826Z,94285.81
2023-04-06T02:55:01.536Z,94285.59
2023-04-06T02:57:28.489Z,94284.53
2023-04-06T02:59:55.238Z,94293.63
2023-04-06T03:02:22.243Z,94291.38
2023-04-06T03:04:49.076Z,94295.78
2023-04-06T03:07:15.869Z,94295.75
2023-04-06T03:09:43.269Z,94290.53
2023-04-06T03:12:10.368Z,94291.66
2023-04-06T03:14:37.305Z,94288.44
2023-04-06T03:17:04.136Z,94294.06
2023-04-06T03:19:30.851Z,94299.69
2023-04-06T03:21:57.668Z,94295.00
2023-04-06T03:24:24.521Z,94303.28
2023-04-06T03:26:51.331Z,94294.44
2023-04-06T03:29:18.152Z,94299.56
2023-04-06T03:31:44.985Z,94300.22
2023-04-06T03:34:11.900Z,94301.16
2023-04-06T03:36:38.796Z,94301.56
2023-04-06T03:39:05.692Z,94305.84
2023-04-06T03:41:32.462Z,94303.16
2023-04-06T03:43:59.349Z,94305.97
2023-04-06T03:46:26.222Z,94305.72
2023-04-06T03:48:53.037Z,94312.81
2023-04-06T03:51:19.839Z,94319.38
2023-04-06T03:53:46.639Z,94309.72
2023-04-06T03:56:13.457Z,94316.69
2023-04-06T03:58:40.486Z,94310.81
2023-04-06T04:01:07.307Z,94320.41
2023-04-06T04:03:34.259Z,94314.66
2023-04-06T04:06:01.073Z,94313.47
2023-04-06T04:08:27.890Z,94305.16
2023-04-06T04:10:54.707Z,94303.84
2023-04-06T04:13:21.445Z,94309.19
2023-04-06T04:15:48.771Z,94308.88
2023-04-06T04:18:15.910Z,94316.13
2023-04-06T04:20:42.843Z,94314.13
2023-04-06T04:23:09.526Z,94309.97
2023-04-06T04:25:36.313Z,94317.72
2023-04-06T04:28:03.704Z,94314.78
2023-04-06T04:30:30.411Z,94323.63
2023-04-06T04:32:57.085Z,94310.47
2023-04-06T04:35:23.944Z,94321.72
2023-04-06T04:37:50.626Z,94317.06
2023-04-06T04:40:17.820Z,94329.50
2023-04-06T04:42:44.491Z,94321.75
2023-04-06T04:45:11.454Z,94325.00
2023-04-06T04:47:38.134Z,94329.09
2023-04-06T04:50:05.449Z,94335.38
2023-04-06T04:52:32.258Z,94326.41
2023-04-06T04:54:59.092Z,94334.84
2023-04-06T04:57:25.973Z,94330.31
2023-04-06T04:59:52.733Z,94334.09
2023-04-06T05:02:19.710Z,94335.28
2023-04-06T05:04:46.558Z,94331.41
2023-04-06T05:07:13.241Z,94341.31
2023-04-06T05:09:39.973Z,94343.31
2023-04-06T05:12:06.973Z,94337.84
2023-04-06T05:14:33.891Z,94352.94
2023-04-06T05:17:00.673Z,94342.75
2023-04-06T05:19:27.451Z,94346.19
2023-04-06T05:21:54.168Z,94349.31
2023-04-06T05:24:21.104Z,94354.06
2023-04-06T05:26:47.979Z,94361.06
2023-04-06T05:29:14.833Z,94350.44
2023-04-06T05:31:41.741Z,94358.22
2023-04-06T05:34:10.575Z,94364.09
2023-04-06T05:36:37.520Z,94360.28
2023-04-06T05:39:04.284Z,94367.66
2023-04-06T05:41:31.288Z,94363.28
2023-04-06T05:43:58.137Z,94368.34
2023-04-06T05:46:24.874Z,94359.59
2023-04-06T05:48:51.568Z,94369.50
2023-04-06T05:51:18.300Z,94367.25
2023-04-06T05:53:45.033Z,94365.19
2023-04-06T05:56:12.280Z,94366.41
2023-04-06T05:58:39.136Z,94355.00
2023-04-06T06:01:05.996Z,94372.69
2023-04-06T06:03:32.785Z,94373.50
2023-04-06T06:06:06.136Z,94375.06
2023-04-06T06:08:33.021Z,94362.63
2023-04-06T06:10:59.872Z,94377.53
2023-04-06T06:13:26.812Z,94376.88
2023-04-06T06:15:53.754Z,94370.00
2023-04-06T06:18:20.741Z,94374.28
2023-04-06T06:20:47.512Z,94365.19
2023-04-06T06:23:15.579Z,94363.13
2023-04-06T06:25:42.270Z,94370.28
2023-04-06T06:28:09.094Z,94366.13
2023-04-06T06:30:36.014Z,94363.31
2023-04-06T06:33:02.863Z,94365.63
2023-04-06T06:35:29.727Z,94368.84
2023-04-06T06:37:56.759Z,94364.19
2023-04-06T06:40:25.239Z,94369.69
2023-04-06T06:42:52.601Z,94363.25
2023-04-06T06:45:19.646Z,94366.13
2023-04-06T06:47:46.709Z,94367.16
2023-04-06T06:50:13.629Z,94362.31
2023-04-06T06:52:41.532Z,94365.75
2023-04-06T06:55:09.475Z,94372.56
2023-04-06T06:57:36.264Z,94366.75
2023-04-06T07:00:04.093Z,94366.66
2023-04-06T07:02:31.009Z,94364.63
2023-04-06T07:04:58.056Z,94368.00
2023-04-06T07:07:24.774Z,94369.75
2023-04-06T07:09:51.615Z,94362.88
2023-04-06T07:12:18.496Z,94371.81
2023-04-06T07:14:45.371Z,94370.34
2023-04-06T07:17:12.609Z,94373.06
2023-04-06T07:19:39.822Z,94371.13
2023-04-06T07:22:06.724Z,94371.09
2023-04-06T07:24:33.568Z,94366.00
2023-04-06T07:27:01.730Z,94369.59
2023-04-06T07:29:28.941Z,94365.44
2023-04-06T07:31:56.135Z,94362.69
2023-04-06T07:34:23.432Z,94365.88
2023-04-06T07:36:50.366Z,94355.56
2023-04-06T07:39:18.063Z,94360.47
2023-04-06T07:41:44.911Z,94358.69
2023-04-06T07:44:11.677Z,94364.09
2023-04-06T07:46:38.569Z,94360.56
2023-04-06T07:49:05.486Z,94364.28
2023-04-06T07:51:32.434Z,94360.50
2023-04-06T07:53:59.728Z,94353.41
2023-04-06T07:56:26.794Z,94346.19
2023-04-06T07:58:56.621Z,94340.28
2023-04-06T08:01:23.537Z,94341.72
2023-04-06T08:03:51.459Z,94349.28
2023-04-06T08:06:18.419Z,94339.31
2023-04-06T08:08:45.233Z,94337.88
2023-04-06T08:11:12.211Z,94331.16
2023-04-06T08:13:38.936Z,94326.28
2023-04-06T08:16:06.294Z,94325.06
2023-04-06T08:18:33.263Z,94327.53
2023-04-06T08:21:00.031Z,94329.69
2023-04-06T08:23:26.877Z,94318.47
2023-04-06T08:25:55.312Z,94327.03
2023-04-06T08:28:22.429Z,94321.72
2023-04-06T08:30:49.470Z,94314.91
2023-04-06T08:33:16.664Z,94322.91
2023-04-06T08:35:43.591Z,94326.69
2023-04-06T08:38:10.372Z,94320.78
2023-04-06T08:40:39.893Z,94319.56
2023-04-06T08:43:12.606Z,94308.75
2023-04-06T08:45:40.273Z,94324.47
2023-04-06T08:48:07.903Z,94314.81
2023-04-06T08:50:35.240Z,94306.97
2023-04-06T08:53:02.296Z,94305.50
2023-04-06T08:55:29.326Z,94306.28
2023-04-06T08:57:56.845Z,94309.66
2023-04-06T09:00:24.186Z,94302.69
2023-04-06T09:02:51.338Z,94302.06
2023-04-06T09:05:18.741Z,94296.69
2023-04-06T09:07:46.490Z,94290.72
2023-04-06T09:10:13.296Z,94301.88
2023-04-06T09:12:40.096Z,94296.34
2023-04-06T09:15:07.643Z,94298.28
2023-04-06T09:17:34.934Z,94296.06
2023-04-06T09:20:03.669Z,94288.91
2023-04-06T09:22:38.567Z,94286.16
2023-04-06T09:25:06.028Z,94284.38
2023-04-06T09:27:34.976Z,94287.09
2023-04-06T09:30:09.883Z,94286.03
2023-04-06T09:32:53.985Z,94283.31
2023-04-06T09:35:21.710Z,94277.22
2023-04-06T09:37:49.537Z,94273.22
2023-04-06T09:40:18.558Z,94259.63
2023-04-06T09:42:49.425Z,94263.50
2023-04-06T09:45:16.483Z,94259.09
2023-04-06T09:47:47.188Z,94258.44
2023-04-06T09:50:15.877Z,94255.84
2023-04-06T09:52:51.657Z,94254.53
2023-04-06T09:55:29.558Z,94249.75
2023-04-06T09:58:05.802Z,94251.50
2023-04-06T10:00:34.310Z,94236.25
2023-04-06T10:03:18.711Z,94236.97
2023-04-06T10:05:53.789Z,94236.53
2023-04-06T10:08:22.216Z,94234.63
2023-04-06T10:10:49.851Z,94229.56
2023-04-06T10:13:16.787Z,94233.16
2023-04-06T10:15:44.136Z,94237.34
2023-04-06T10:18:11.169Z,94234.53
2023-04-06T10:20:58.990Z,94218.38
2023-04-06T10:23:52.539Z,94233.28
2023-04-06T10:26:22.158Z,94224.81
2023-04-06T10:28:50.228Z,94222.22
2023-04-06T10:31:25.678Z,94216.16
2023-04-06T10:34:05.024Z,94204.91
2023-04-06T10:36:35.931Z,94209.00
2023-04-06T10:39:07.592Z,94209.00
2023-04-06T10:41:36.418Z,94201.63
2023-04-06T10:44:03.476Z,94195.81
2023-04-06T10:46:31.853Z,94188.78
2023-04-06T10:48:59.226Z,94190.19
2023-04-06T10:51:30.629Z,94180.25
2023-04-06T10:53:58.155Z,94200.63
2023-04-06T10:56:26.633Z,94187.50
2023-04-06T10:58:54.990Z,94183.28
2023-04-06T11:01:23.769Z,94182.13
2023-04-06T11:03:53.773Z,94172.28
2023-04-06T11:06:27.903Z,94178.38
2023-04-06T11:08:56.919Z,94191.56
2023-04-06T11:11:26.672Z,94192.53
2023-04-06T11:13:58.405Z,94191.66
2023-04-06T11:16:32.853Z,94167.88
2023-04-06T11:19:02.645Z,94177.63
2023-04-06T11:21:44.382Z,94178.38
2023-04-06T11:24:13.312Z,94170.78
2023-04-06T11:26:40.053Z,94165.28
2023-04-06T11:29:07.250Z,94162.41
2023-04-06T11:31:40.687Z,94173.00
2023-04-06T11:34:12.471Z,94172.09
2023-04-06T11:36:42.493Z,94179.75
2023-04-06T11:39:09.832Z,94169.91
2023-04-06T11:41:37.163Z,94169.53
2023-04-06T11:44:04.236Z,94162.31
2023-04-06T11:46:31.103Z,94169.69
2023-04-06T11:49:02.317Z,94160.53
2023-04-06T11:51:29.232Z,94155.53
2023-04-06T11:53:57.239Z,94159.47
2023-04-06T11:56:30.639Z,94149.09
2023-04-06T11:58:58.939Z,94148.19
2023-04-06T12:01:26.154Z,94148.75
2023-04-06T12:03:53.742Z,94138.03
2023-04-06T12:06:21.017Z,94149.16
2023-04-06T12:08:47.901Z,94150.28
2023-04-06T12:11:14.779Z,94144.94
2023-04-06T12:13:41.595Z,94130.66
2023-04-06T12:16:08.520Z,94145.75
2023-04-06T12:18:35.489Z,94141.38
2023-04-06T12:21:02.290Z,94134.72
2023-04-06T12:23:29.052Z,94132.34
2023-04-06T12:25:56.469Z,94140.56
2023-04-06T12:28:27.840Z,94135.00
2023-04-06T12:30:56.012Z,94137.44
2023-04-06T12:33:22.937Z,94127.44
2023-04-06T12:35:49.808Z,94133.28
2023-04-06T12:38:17.176Z,94133.72
2023-04-06T12:40:44.036Z,94131.50
2023-04-06T12:43:11.064Z,94117.97
2023-04-06T12:45:38.092Z,94113.13
2023-04-06T12:48:04.977Z,94116.75
2023-04-06T12:50:31.773Z,94127.63
2023-04-06T12:52:58.555Z,94130.78
2023-04-06T12:55:26.154Z,94120.00
2023-04-06T12:57:52.910Z,94112.44
2023-04-06T13:00:20.734Z,94105.34
2023-04-06T13:02:48.506Z,94110.22
2023-04-06T13:05:20.054Z,94094.44
2023-04-06T13:07:48.024Z,94111.06
2023-04-06T13:10:14.946Z,94108.84
2023-04-06T13:12:41.790Z,94113.19
2023-04-06T13:15:09.132Z,94101.91
2023-04-06T13:17:36.090Z,94096.72
2023-04-06T13:20:02.989Z,94091.41
2023-04-06T13:22:29.852Z,94095.38
2023-04-06T13:24:56.691Z,94102.38
2023-04-06T13:27:25.176Z,94095.59
2023-04-06T13:29:52.235Z,94092.19
2023-04-06T13:32:19.024Z,94098.06
2023-04-06T13:34:46.123Z,94094.47
2023-04-06T13:37:14.419Z,94099.47
2023-04-06T13:39:41.285Z,94094.84
2023-04-06T13:42:08.190Z,94096.53
2023-04-06T13:44:34.948Z,94104.78
2023-04-06T13:47:01.717Z,94115.91
2023-04-06T13:49:28.545Z,94108.94
2023-04-06T13:51:55.421Z,94106.84
2023-04-06T13:54:22.163Z,94107.94
2023-04-06T13:56:48.941Z,94096.41
2023-04-06T13:59:15.868Z,94102.88
2023-04-06T14:01:43.010Z,94100.78
2023-04-06T14:04:09.860Z,94106.00
2023-04-06T14:06:36.702Z,94093.94
2023-04-06T14:09:03.512Z,94082.34
2023-04-06T14:11:30.390Z,94090.59
2023-04-06T14:13:58.610Z,94097.81
2023-04-06T14:16:26.030Z,94108.44
2023-04-06T14:18:53.412Z,94096.91
2023-04-06T14:21:20.996Z,94095.31
2023-04-06T14:23:47.835Z,94100.34
2023-04-06T14:26:15.088Z,94106.66
2023-04-06T14:28:42.664Z,94102.31
2023-04-06T14:31:14.261Z,94094.78
2023-04-06T14:33:41.693Z,94098.97
2023-04-06T14:36:09.243Z,94092.38
2023-04-06T14:38:36.713Z,94095.91
2023-04-06T14:41:03.495Z,94098.63
2023-04-06T14:43:30.938Z,94097.03
2023-04-06T14:46:01.715Z,94096.66
2023-04-06T14:48:29.075Z,94092.63
2023-04-06T14:50:57.603Z,94090.16
2023-04-06T14:53:25.027Z,94084.53
2023-04-06T14:55:52.593Z,94085.47
2023-04-06T14:58:23.503Z,94083.31
2023-04-06T15:00:51.293Z,94091.09
2023-04-06T15:03:18.122Z,94092.34
2023-04-06T15:05:45.678Z,94091.91
2023-04-06T15:08:13.323Z,94086.34
2023-04-06T15:10:40.130Z,94088.50
2023-04-06T15:13:06.957Z,94089.81
2023-04-06T15:15:33.725Z,94095.38
2023-04-06T15:18:03.553Z,94098.19
2023-04-06T15:20:30.450Z,94093.13
2023-04-06T15:22:57.576Z,94094.72
2023-04-06T15:25:24.403Z,94095.13
2023-04-06T15:27:51.423Z,94091.41
2023-04-06T15:30:18.160Z,94092.25
2023-04-06T15:32:59.539Z,94089.94
2023-04-06T15:35:26.676Z,94094.13
2023-04-06T15:37:53.527Z,94090.63
2023-04-06T15:40:20.401Z,94088.03
2023-04-06T15:42:47.092Z,94095.44
2023-04-06T15:45:14.132Z,94088.91
2023-04-06T15:47:42.152Z,94093.28
2023-04-06T15:50:09.610Z,94095.31
2023-04-06T15:52:37.214Z,94103.09
2023-04-06T15:55:05.618Z,94092.56
2023-04-06T15:57:32.594Z,94095.97
2023-04-06T15:59:59.587Z,94099.53
2023-04-06T16:02:26.576Z,94097.16
2023-04-06T16:05:02.826Z,94109.94
2023-04-06T16:07:30.414Z,94097.34
2023-04-06T16:09:57.804Z,94099.69
2023-04-06T16:12:25.166Z,94099.50
2023-04-06T16:14:52.546Z,94103.84
2023-04-06T16:17:19.264Z,94108.25
2023-04-06T16:19:46.038Z,94105.44
2023-04-06T16:22:12.893Z,94101.56
2023-04-06T16:24:39.680Z,94103.94
2023-04-06T16:27:06.287Z,94111.91
2023-04-06T16:29:36.047Z,94114.75
2023-04-06T16:32:03.858Z,94118.47
2023-04-06T16:34:34.340Z,94119.28
2023-04-06T16:37:02.033Z,94121.28
2023-04-06T16:39:28.851Z,94124.47
2023-04-06T16:41:56.415Z,94121.72
2023-04-06T16:44:23.801Z,94128.47
2023-04-06T16:46:51.233Z,94128.47
2023-04-06T16:49:19.536Z,94130.44
2023-04-06T16:51:46.308Z,94130.03
2023-04-06T16:54:13.204Z,94127.06
2023-04-06T16:56:39.914Z,94130.84
2023-04-06T16:59:09.709Z,94121.50
2023-04-06T17:01:36.929Z,94123.28
2023-04-06T17:04:03.921Z,94132.41
2023-04-06T17:06:31.396Z,94130.19
2023-04-06T17:08:59.883Z,94133.38
2023-04-06T17:11:32.916Z,94128.28
2023-04-06T17:14:10.396Z,94125.69
2023-04-06T17:16:37.136Z,94124.28
2023-04-06T17:19:03.863Z,94127.06
2023-04-06T17:21:30.982Z,94126.69
2023-04-06T17:23:57.820Z,94122.06
2023-04-06T17:26:24.548Z,94126.47
2023-04-06T17:28:51.316Z,94122.47
2023-04-06T17:31:18.065Z,94122.06
2023-04-06T17:33:45.079Z,94125.84
2023-04-06T17:36:12.537Z,94124.03
2023-04-06T17:38:43.675Z,94130.56
2023-04-06T17:41:11.906Z,94130.78
2023-04-06T17:43:38.678Z,94135.13
2023-04-06T17:46:05.723Z,94135.50
2023-04-06T17:48:32.729Z,94135.03
2023-04-06T17:50:59.753Z,94139.19
2023-04-06T17:53:30.615Z,94141.50
2023-04-06T17:55:57.410Z,94146.22
2023-04-06T17:58:24.492Z,94144.44
2023-04-06T18:00:51.285Z,94159.50
2023-04-06T18:03:18.082Z,94163.50
2023-04-06T18:05:44.889Z,94159.13
2023-04-06T18:08:12.883Z,94169.41
2023-04-06T18:10:39.674Z,94166.84
2023-04-06T18:13:07.192Z,94168.97
2023-04-06T18:15:35.950Z,94171.31
2023-04-06T18:18:02.948Z,94168.75
2023-04-06T18:20:29.881Z,94168.81
2023-04-06T18:22:56.646Z,94163.09
2023-04-06T18:25:25.464Z,94178.22
2023-04-06T18:27:52.204Z,94174.84
2023-04-06T18:30:20.050Z,94173.47
2023-04-06T18:32:47.304Z,94183.66
2023-04-06T18:35:14.465Z,94183.94
2023-04-06T18:37:41.143Z,94180.81
2023-04-06T18:40:08.300Z,94190.13
2023-04-06T18:42:35.920Z,94204.25
2023-04-06T18:45:02.620Z,94202.66
2023-04-06T18:47:29.375Z,94199.28
2023-04-06T18:49:58.013Z,94201.41
2023-04-06T18:52:24.812Z,94207.28
2023-04-06T18:54:51.483Z,94203.94
2023-04-06T18:57:18.222Z,94204.09
2023-04-06T18:59:44.929Z,94197.88
2023-04-06T19:02:14.335Z,94206.63
2023-04-06T19:04:41.733Z,94200.81
2023-04-06T19:07:08.481Z,94205.84
2023-04-06T19:09:35.444Z,94207.50
2023-04-06T19:12:03.478Z,94213.25
2023-04-06T19:14:33.952Z,94215.53
2023-04-06T19:17:02.320Z,94216.34
2023-04-06T19:19:32.955Z,94214.78
2023-04-06T19:22:01.931Z,94219.66
2023-04-06T19:24:34.728Z,94222.22
2023-04-06T19:27:02.998Z,94227.44
2023-04-06T19:29:31.608Z,94220.03
2023-04-06T19:32:00.730Z,94223.91
2023-04-06T19:34:29.303Z,94222.06
2023-04-06T19:36:59.858Z,94218.25
2023-04-06T19:39:27.913Z,94221.38
2023-04-06T19:41:58.383Z,94224.22
2023-04-06T19:44:26.177Z,94220.31
2023-04-06T19:46:53.191Z,94218.09
2023-04-06T19:49:21.533Z,94223.28
2023-04-06T19:51:48.346Z,94216.91
2023-04-06T19:54:15.792Z,94227.84
2023-04-06T19:56:43.296Z,94223.97
2023-04-06T19:59:12.029Z,94232.44
2023-04-06T20:01:39.731Z,94230.53
2023-04-06T20:04:07.318Z,94226.38
2023-04-06T20:06:34.211Z,94226.06
2023-04-06T20:09:01.656Z,94229.91
2023-04-06T20:11:28.462Z,94231.72
2023-04-06T20:13:57.517Z,94226.94
2023-04-06T20:16:25.217Z,94231.56
2023-04-06T20:18:52.545Z,94229.34
2023-04-06T20:21:19.213Z,94231.31
2023-04-06T20:23:47.437Z,94235.47
2023-04-06T20:26:22.929Z,94233.22
2023-04-06T20:28:51.557Z,94241.25
2023-04-06T20:31:18.430Z,94239.47
2023-04-06T20:33:46.040Z,94234.38
2023-04-06T20:36:13.778Z,94230.56
2023-04-06T20:38:41.997Z,94239.31
2023-04-06T20:41:08.826Z,94246.56
2023-04-06T20:43:37.491Z,94245.00
2023-04-06T20:46:06.360Z,94243.91
2023-04-06T20:48:37.156Z,94236.88
2023-04-06T20:51:05.536Z,94239.91
2023-04-06T20:53:33.529Z,94236.25
2023-04-06T20:56:05.358Z,94240.88
2023-04-06T20:58:32.227Z,94239.13
2023-04-06T21:00:59.824Z,94238.47
2023-04-06T21:03:26.775Z,94244.06
2023-04-06T21:05:55.714Z,94241.03
2023-04-06T21:08:22.409Z,94238.63
2023-04-06T21:10:49.023Z,94238.66
2023-04-06T21:13:17.669Z,94243.28
2023-04-06T21:15:44.558Z,94242.81
2023-04-06T21:18:11.688Z,94245.22
2023-04-06T21:20:40.762Z,94242.50
2023-04-06T21:23:08.206Z,94248.88
2023-04-06T21:25:37.086Z,94243.75
2023-04-06T21:28:04.972Z,94240.09
2023-04-06T21:30:37.121Z,94242.16
2023-04-06T21:33:04.843Z,94241.66
2023-04-06T21:35:31.622Z,94239.44
2023-04-06T21:37:58.314Z,94238.66
2023-04-06T21:40:25.004Z,94236.88
2023-04-06T21:42:51.653Z,94238.13
2023-04-06T21:45:18.247Z,94243.06
2023-04-06T21:47:44.962Z,94244.84
2023-04-06T21:50:11.581Z,94241.81
2023-04-06T21:52:38.325Z,94236.88
2023-04-06T21:55:05.479Z,94235.56
2023-04-06T21:57:32.121Z,94226.13
2023-04-06T21:59:58.805Z,94233.16
2023-04-06T22:02:25.842Z,94219.72
2023-04-06T22:04:52.825Z,94222.13
2023-04-06T22:07:19.532Z,94229.81
2023-04-06T22:09:50.836Z,94223.56
2023-04-06T22:12:18.692Z,94231.72
2023-04-06T22:14:45.468Z,94231.47
2023-04-06T22:17:12.156Z,94232.47
2023-04-06T22:19:38.832Z,94225.75
2023-04-06T22:22:05.510Z,94227.56
2023-04-06T22:24:32.139Z,94224.00
2023-04-06T22:26:58.969Z,94223.50
2023-04-06T22:29:25.656Z,94225.25
2023-04-06T22:31:52.267Z,94224.69
2023-04-06T22:34:19.199Z,94218.72
2023-04-06T22:36:46.070Z,94222.09
2023-04-06T22:39:12.720Z,94220.16
2023-04-06T22:41:39.378Z,94221.72
2023-04-06T22:44:06.000Z,94206.19
2023-04-06T22:46:32.620Z,94223.16
2023-04-06T22:48:59.246Z,94214.41
2023-04-06T22:51:28.186Z,94216.09
2023-04-06T22:53:54.768Z,94215.59
2023-04-06T22:56:21.990Z,94218.50
2023-04-06T22:58:48.584Z,94221.88
2023-04-06T23:01:15.335Z,94225.72
2023-04-06T23:03:42.254Z,94223.72
2023-04-06T23:06:09.243Z,94218.31
2023-04-06T23:08:36.152Z,94216.25
2023-04-06T23:11:02.909Z,94215.84
2023-04-06T23:13:29.916Z,94207.09
2023-04-06T23:15:56.736Z,94205.78
2023-04-06T23:18:23.453Z,94214.00
2023-04-06T23:20:50.397Z,94206.84
2023-04-06T23:23:17.201Z,94203.78
2023-04-06T23:25:43.859Z,94207.69
2023-04-06T23:28:10.783Z,94212.69
2023-04-06T23:30:37.467Z,94208.88
2023-04-06T23:33:04.461Z,94216.88
2023-04-06T23:35:31.298Z,94213.28
2023-04-06T23:37:59.433Z,94211.38
2023-04-06T23:40:26.477Z,94214.22
2023-04-06T23:42:53.192Z,94208.91
2023-04-06T23:45:20.065Z,94217.88
2023-04-06T23:47:46.853Z,94212.06
2023-04-06T23:50:13.693Z,94217.97
2023-04-06T23:52:40.614Z,94213.50
2023-04-06T23:55:07.643Z,94207.75
2023-04-06T23:57:34.405Z,94207.59
